sensor_id;sensor_type;location;lat;lon;timestamp;P1;durP1;ratioP1;P2;durP2;ratioP2
61685;SDS011;47592;45.904;8.978;2024-03-23T00:53:47;36.03;;;22.52;;
61685;SDS011;47592;45.904;8.978;2024-03-23T00:56:15;37.67;;;22.20;;
61685;SDS011;47592;45.904;8.978;2024-03-23T00:58:43;35.25;;;22.42;;
61685;SDS011;47592;45.904;8.978;2024-03-23T01:01:08;40.75;;;23.42;;
61685;SDS011;47592;45.904;8.978;2024-03-23T01:03:33;40.15;;;22.60;;
61685;SDS011;47592;45.904;8.978;2024-03-23T01:06:02;38.92;;;23.13;;
61685;SDS011;47592;45.904;8.978;2024-03-23T01:08:29;35.15;;;22.42;;
61685;SDS011;47592;45.904;8.978;2024-03-23T01:10:58;38.80;;;22.30;;
61685;SDS011;47592;45.904;8.978;2024-03-23T01:13:25;35.55;;;21.90;;
61685;SDS011;47592;45.904;8.978;2024-03-23T01:15:50;37.40;;;22.90;;
61685;SDS011;47592;45.904;8.978;2024-03-23T01:18:19;36.70;;;22.25;;
61685;SDS011;47592;45.904;8.978;2024-03-23T01:20:49;35.65;;;22.63;;
61685;SDS011;47592;45.904;8.978;2024-03-23T01:23:14;39.15;;;22.70;;
61685;SDS011;47592;45.904;8.978;2024-03-23T01:25:42;39.25;;;22.67;;
61685;SDS011;47592;45.904;8.978;2024-03-23T01:28:08;38.35;;;23.33;;
61685;SDS011;47592;45.904;8.978;2024-03-23T01:30:33;36.17;;;22.95;;
61685;SDS011;47592;45.904;8.978;2024-03-23T01:32:59;39.03;;;23.10;;
61685;SDS011;47592;45.904;8.978;2024-03-23T01:35:28;37.10;;;22.80;;
61685;SDS011;47592;45.904;8.978;2024-03-23T01:37:53;39.63;;;22.73;;
61685;SDS011;47592;45.904;8.978;2024-03-23T01:40:21;39.13;;;23.42;;
61685;SDS011;47592;45.904;8.978;2024-03-23T01:45:46;34.08;;;22.02;;
61685;SDS011;47592;45.904;8.978;2024-03-23T01:48:11;35.90;;;22.30;;
61685;SDS011;47592;45.904;8.978;2024-03-23T01:50:37;36.67;;;21.75;;
61685;SDS011;47592;45.904;8.978;2024-03-23T01:53:03;36.85;;;22.90;;
61685;SDS011;47592;45.904;8.978;2024-03-23T01:55:34;35.63;;;22.75;;
61685;SDS011;47592;45.904;8.978;2024-03-23T01:58:00;38.40;;;22.13;;
61685;SDS011;47592;45.904;8.978;2024-03-23T02:00:28;35.63;;;22.40;;
61685;SDS011;47592;45.904;8.978;2024-03-23T02:02:55;36.10;;;22.13;;
61685;SDS011;47592;45.904;8.978;2024-03-23T02:05:23;37.00;;;21.77;;
61685;SDS011;47592;45.904;8.978;2024-03-23T02:07:49;35.75;;;21.88;;
61685;SDS011;47592;45.904;8.978;2024-03-23T02:10:15;38.22;;;22.42;;
61685;SDS011;47592;45.904;8.978;2024-03-23T02:12:43;36.03;;;22.92;;
61685;SDS011;47592;45.904;8.978;2024-03-23T02:15:09;38.15;;;22.63;;
61685;SDS011;47592;45.904;8.978;2024-03-23T02:17:35;39.88;;;22.95;;
61685;SDS011;47592;45.904;8.978;2024-03-23T02:20:05;35.15;;;22.98;;
61685;SDS011;47592;45.904;8.978;2024-03-23T02:22:37;37.25;;;23.42;;
61685;SDS011;47592;45.904;8.978;2024-03-23T02:25:04;38.67;;;24.65;;
61685;SDS011;47592;45.904;8.978;2024-03-23T02:27:32;42.67;;;25.42;;
61685;SDS011;47592;45.904;8.978;2024-03-23T02:30:00;38.00;;;24.35;;
61685;SDS011;47592;45.904;8.978;2024-03-23T02:32:27;40.13;;;23.48;;
61685;SDS011;47592;45.904;8.978;2024-03-23T02:34:57;38.47;;;24.42;;
61685;SDS011;47592;45.904;8.978;2024-03-23T02:37:23;41.13;;;23.98;;
61685;SDS011;47592;45.904;8.978;2024-03-23T02:39:52;39.72;;;24.45;;
61685;SDS011;47592;45.904;8.978;2024-03-23T02:42:17;40.25;;;24.75;;
61685;SDS011;47592;45.904;8.978;2024-03-23T02:44:43;39.47;;;24.55;;
61685;SDS011;47592;45.904;8.978;2024-03-23T02:47:09;41.95;;;24.90;;
61685;SDS011;47592;45.904;8.978;2024-03-23T02:49:34;40.03;;;25.33;;
61685;SDS011;47592;45.904;8.978;2024-03-23T02:52:00;39.35;;;24.05;;
61685;SDS011;47592;45.904;8.978;2024-03-23T02:54:29;42.25;;;25.40;;
61685;SDS011;47592;45.904;8.978;2024-03-23T02:56:54;43.95;;;24.77;;
61685;SDS011;47592;45.904;8.978;2024-03-23T02:59:20;38.33;;;24.33;;
61685;SDS011;47592;45.904;8.978;2024-03-23T03:01:45;40.33;;;24.08;;
61685;SDS011;47592;45.904;8.978;2024-03-23T03:04:10;39.33;;;23.88;;
61685;SDS011;47592;45.904;8.978;2024-03-23T03:06:41;39.58;;;24.00;;
61685;SDS011;47592;45.904;8.978;2024-03-23T03:09:06;38.85;;;23.83;;
61685;SDS011;47592;45.904;8.978;2024-03-23T03:11:34;40.45;;;24.40;;
61685;SDS011;47592;45.904;8.978;2024-03-23T03:13:59;39.20;;;22.90;;
61685;SDS011;47592;45.904;8.978;2024-03-23T03:16:27;37.78;;;22.63;;
61685;SDS011;47592;45.904;8.978;2024-03-23T03:18:52;35.42;;;21.48;;
61685;SDS011;47592;45.904;8.978;2024-03-23T03:21:20;35.60;;;21.83;;
61685;SDS011;47592;45.904;8.978;2024-03-23T03:23:46;38.60;;;23.20;;
61685;SDS011;47592;45.904;8.978;2024-03-23T03:26:17;38.50;;;22.88;;
61685;SDS011;47592;45.904;8.978;2024-03-23T03:28:43;40.97;;;23.33;;
61685;SDS011;47592;45.904;8.978;2024-03-23T03:31:13;37.33;;;22.33;;
61685;SDS011;47592;45.904;8.978;2024-03-23T03:33:44;39.03;;;23.92;;
61685;SDS011;47592;45.904;8.978;2024-03-23T03:36:10;38.55;;;23.98;;
61685;SDS011;47592;45.904;8.978;2024-03-23T03:38:35;38.15;;;23.23;;
61685;SDS011;47592;45.904;8.978;2024-03-23T03:41:01;37.88;;;22.65;;
61685;SDS011;47592;45.904;8.978;2024-03-23T03:43:27;38.08;;;23.52;;
61685;SDS011;47592;45.904;8.978;2024-03-23T03:45:55;38.28;;;22.52;;
61685;SDS011;47592;45.904;8.978;2024-03-23T03:48:24;41.47;;;23.55;;
61685;SDS011;47592;45.904;8.978;2024-03-23T03:50:52;39.95;;;23.65;;
61685;SDS011;47592;45.904;8.978;2024-03-23T03:53:20;38.50;;;23.73;;
61685;SDS011;47592;45.904;8.978;2024-03-23T03:55:46;39.70;;;24.88;;
61685;SDS011;47592;45.904;8.978;2024-03-23T03:58:13;38.70;;;23.75;;
61685;SDS011;47592;45.904;8.978;2024-03-23T04:00:39;41.25;;;24.45;;
61685;SDS011;47592;45.904;8.978;2024-03-23T04:03:04;40.03;;;24.00;;
61685;SDS011;47592;45.904;8.978;2024-03-23T04:05:29;36.83;;;22.85;;
61685;SDS011;47592;45.904;8.978;2024-03-23T04:07:55;40.63;;;25.13;;
61685;SDS011;47592;45.904;8.978;2024-03-23T04:10:20;44.28;;;24.13;;
61685;SDS011;47592;45.904;8.978;2024-03-23T04:12:48;41.13;;;22.92;;
61685;SDS011;47592;45.904;8.978;2024-03-23T04:15:16;37.05;;;23.23;;
61685;SDS011;47592;45.904;8.978;2024-03-23T04:17:43;39.78;;;24.15;;
61685;SDS011;47592;45.904;8.978;2024-03-23T04:20:09;40.53;;;24.05;;
61685;SDS011;47592;45.904;8.978;2024-03-23T04:22:39;38.78;;;24.23;;
61685;SDS011;47592;45.904;8.978;2024-03-23T04:25:05;38.97;;;24.05;;
61685;SDS011;47592;45.904;8.978;2024-03-23T04:27:34;39.05;;;24.15;;
61685;SDS011;47592;45.904;8.978;2024-03-23T04:30:00;39.78;;;24.45;;
61685;SDS011;47592;45.904;8.978;2024-03-23T04:32:29;37.65;;;23.33;;
61685;SDS011;47592;45.904;8.978;2024-03-23T04:34:54;37.25;;;23.23;;
61685;SDS011;47592;45.904;8.978;2024-03-23T04:37:24;36.80;;;23.30;;
61685;SDS011;47592;45.904;8.978;2024-03-23T04:39:50;39.60;;;23.20;;
61685;SDS011;47592;45.904;8.978;2024-03-23T04:42:15;38.63;;;23.98;;
61685;SDS011;47592;45.904;8.978;2024-03-23T04:44:41;40.28;;;24.80;;
61685;SDS011;47592;45.904;8.978;2024-03-23T04:47:11;39.75;;;23.95;;
61685;SDS011;47592;45.904;8.978;2024-03-23T04:49:36;45.75;;;25.02;;
61685;SDS011;47592;45.904;8.978;2024-03-23T04:52:04;37.17;;;24.20;;
61685;SDS011;47592;45.904;8.978;2024-03-23T04:54:30;42.50;;;25.58;;
61685;SDS011;47592;45.904;8.978;2024-03-23T04:56:57;40.17;;;25.80;;
61685;SDS011;47592;45.904;8.978;2024-03-23T04:59:22;38.25;;;24.20;;
61685;SDS011;47592;45.904;8.978;2024-03-23T05:01:48;41.60;;;24.30;;
61685;SDS011;47592;45.904;8.978;2024-03-23T05:04:15;37.58;;;23.70;;
61685;SDS011;47592;45.904;8.978;2024-03-23T05:06:41;38.70;;;23.70;;
61685;SDS011;47592;45.904;8.978;2024-03-23T05:09:08;39.65;;;23.00;;
61685;SDS011;47592;45.904;8.978;2024-03-23T05:11:40;39.28;;;23.65;;
61685;SDS011;47592;45.904;8.978;2024-03-23T05:14:09;38.97;;;23.30;;
61685;SDS011;47592;45.904;8.978;2024-03-23T05:16:36;38.88;;;24.27;;
61685;SDS011;47592;45.904;8.978;2024-03-23T05:19:03;38.72;;;22.92;;
61685;SDS011;47592;45.904;8.978;2024-03-23T05:21:31;36.97;;;23.25;;
61685;SDS011;47592;45.904;8.978;2024-03-23T05:23:56;40.55;;;24.08;;
61685;SDS011;47592;45.904;8.978;2024-03-23T05:26:22;39.35;;;23.45;;
61685;SDS011;47592;45.904;8.978;2024-03-23T05:28:48;38.75;;;24.05;;
61685;SDS011;47592;45.904;8.978;2024-03-23T05:34:08;37.65;;;23.55;;
61685;SDS011;47592;45.904;8.978;2024-03-23T05:36:35;39.55;;;23.67;;
61685;SDS011;47592;45.904;8.978;2024-03-23T05:39:01;38.83;;;23.13;;
61685;SDS011;47592;45.904;8.978;2024-03-23T05:41:31;36.00;;;22.55;;
61685;SDS011;47592;45.904;8.978;2024-03-23T05:43:56;40.35;;;23.70;;
61685;SDS011;47592;45.904;8.978;2024-03-23T05:46:24;36.50;;;23.08;;
61685;SDS011;47592;45.904;8.978;2024-03-23T05:48:50;37.88;;;24.05;;
61685;SDS011;47592;45.904;8.978;2024-03-23T05:51:15;37.42;;;23.77;;
61685;SDS011;47592;45.904;8.978;2024-03-23T05:53:43;41.03;;;25.10;;
61685;SDS011;47592;45.904;8.978;2024-03-23T05:56:10;39.40;;;24.17;;
61685;SDS011;47592;45.904;8.978;2024-03-23T05:58:36;41.20;;;24.10;;
61685;SDS011;47592;45.904;8.978;2024-03-23T06:01:01;42.13;;;25.25;;
61685;SDS011;47592;45.904;8.978;2024-03-23T06:03:27;42.13;;;25.60;;
61685;SDS011;47592;45.904;8.978;2024-03-23T06:05:55;42.20;;;24.88;;
61685;SDS011;47592;45.904;8.978;2024-03-23T06:08:21;41.33;;;25.00;;
61685;SDS011;47592;45.904;8.978;2024-03-23T06:10:47;41.03;;;24.77;;
61685;SDS011;47592;45.904;8.978;2024-03-23T06:13:15;41.17;;;24.60;;
61685;SDS011;47592;45.904;8.978;2024-03-23T06:15:43;43.25;;;25.20;;
61685;SDS011;47592;45.904;8.978;2024-03-23T06:18:08;42.30;;;25.33;;
61685;SDS011;47592;45.904;8.978;2024-03-23T06:20:37;41.25;;;26.35;;
61685;SDS011;47592;45.904;8.978;2024-03-23T06:23:02;41.40;;;24.90;;
61685;SDS011;47592;45.904;8.978;2024-03-23T06:25:28;41.85;;;24.60;;
61685;SDS011;47592;45.904;8.978;2024-03-23T06:27:54;43.13;;;25.65;;
61685;SDS011;47592;45.904;8.978;2024-03-23T06:30:23;45.53;;;26.83;;
61685;SDS011;47592;45.904;8.978;2024-03-23T06:32:48;40.65;;;25.33;;
61685;SDS011;47592;45.904;8.978;2024-03-23T06:35:16;41.15;;;25.10;;
61685;SDS011;47592;45.904;8.978;2024-03-23T06:37:44;48.33;;;26.88;;
61685;SDS011;47592;45.904;8.978;2024-03-23T06:40:12;39.45;;;25.45;;
61685;SDS011;47592;45.904;8.978;2024-03-23T06:42:37;43.72;;;24.42;;
61685;SDS011;47592;45.904;8.978;2024-03-23T06:45:03;45.53;;;26.20;;
61685;SDS011;47592;45.904;8.978;2024-03-23T06:47:31;44.53;;;26.25;;
61685;SDS011;47592;45.904;8.978;2024-03-23T06:49:56;38.03;;;24.40;;
61685;SDS011;47592;45.904;8.978;2024-03-23T06:52:26;42.13;;;25.70;;
61685;SDS011;47592;45.904;8.978;2024-03-23T06:54:54;40.22;;;24.95;;
61685;SDS011;47592;45.904;8.978;2024-03-23T06:57:22;41.05;;;24.90;;
61685;SDS011;47592;45.904;8.978;2024-03-23T06:59:50;46.25;;;25.27;;
61685;SDS011;47592;45.904;8.978;2024-03-23T07:02:18;44.55;;;25.75;;
61685;SDS011;47592;45.904;8.978;2024-03-23T07:04:43;41.50;;;25.33;;
61685;SDS011;47592;45.904;8.978;2024-03-23T07:07:08;41.17;;;26.00;;
61685;SDS011;47592;45.904;8.978;2024-03-23T07:09:36;38.47;;;24.98;;
61685;SDS011;47592;45.904;8.978;2024-03-23T07:12:02;44.95;;;25.42;;
61685;SDS011;47592;45.904;8.978;2024-03-23T07:14:28;41.67;;;26.20;;
61685;SDS011;47592;45.904;8.978;2024-03-23T07:16:58;42.05;;;25.95;;
61685;SDS011;47592;45.904;8.978;2024-03-23T07:19:26;40.22;;;25.63;;
61685;SDS011;47592;45.904;8.978;2024-03-23T07:21:51;45.33;;;26.65;;
61685;SDS011;47592;45.904;8.978;2024-03-23T07:24:19;42.95;;;25.33;;
61685;SDS011;47592;45.904;8.978;2024-03-23T07:26:50;41.95;;;25.60;;
61685;SDS011;47592;45.904;8.978;2024-03-23T07:29:19;41.40;;;24.27;;
61685;SDS011;47592;45.904;8.978;2024-03-23T07:31:48;39.85;;;25.10;;
61685;SDS011;47592;45.904;8.978;2024-03-23T07:34:13;40.55;;;25.58;;
61685;SDS011;47592;45.904;8.978;2024-03-23T07:36:39;44.63;;;25.48;;
61685;SDS011;47592;45.904;8.978;2024-03-23T07:39:04;42.05;;;24.60;;
61685;SDS011;47592;45.904;8.978;2024-03-23T07:41:29;42.20;;;24.58;;
61685;SDS011;47592;45.904;8.978;2024-03-23T07:43:57;42.58;;;25.55;;
61685;SDS011;47592;45.904;8.978;2024-03-23T07:46:25;42.75;;;26.60;;
61685;SDS011;47592;45.904;8.978;2024-03-23T07:48:51;39.10;;;25.23;;
61685;SDS011;47592;45.904;8.978;2024-03-23T07:51:17;45.72;;;27.55;;
61685;SDS011;47592;45.904;8.978;2024-03-23T07:53:47;43.60;;;25.30;;
61685;SDS011;47592;45.904;8.978;2024-03-23T07:56:17;44.05;;;25.75;;
61685;SDS011;47592;45.904;8.978;2024-03-23T07:58:46;43.53;;;26.58;;
61685;SDS011;47592;45.904;8.978;2024-03-23T08:01:13;42.53;;;24.98;;
61685;SDS011;47592;45.904;8.978;2024-03-23T08:03:42;45.72;;;26.23;;
61685;SDS011;47592;45.904;8.978;2024-03-23T08:06:14;43.28;;;26.65;;
61685;SDS011;47592;45.904;8.978;2024-03-23T08:08:47;44.17;;;26.10;;
61685;SDS011;47592;45.904;8.978;2024-03-23T08:11:18;41.88;;;25.63;;
61685;SDS011;47592;45.904;8.978;2024-03-23T08:13:46;42.90;;;26.38;;
61685;SDS011;47592;45.904;8.978;2024-03-23T08:16:13;42.42;;;27.33;;
61685;SDS011;47592;45.904;8.978;2024-03-23T08:18:39;40.60;;;25.95;;
61685;SDS011;47592;45.904;8.978;2024-03-23T08:21:09;46.38;;;25.73;;
61685;SDS011;47592;45.904;8.978;2024-03-23T08:23:37;43.97;;;26.95;;
61685;SDS011;47592;45.904;8.978;2024-03-23T08:26:06;42.97;;;24.95;;
61685;SDS011;47592;45.904;8.978;2024-03-23T08:28:36;40.83;;;25.13;;
61685;SDS011;47592;45.904;8.978;2024-03-23T08:31:09;37.75;;;24.98;;
61685;SDS011;47592;45.904;8.978;2024-03-23T08:33:35;41.65;;;24.85;;
61685;SDS011;47592;45.904;8.978;2024-03-23T08:36:07;39.78;;;24.30;;
61685;SDS011;47592;45.904;8.978;2024-03-23T08:38:37;43.75;;;25.10;;
61685;SDS011;47592;45.904;8.978;2024-03-23T08:41:03;42.63;;;25.60;;
61685;SDS011;47592;45.904;8.978;2024-03-23T08:43:35;40.45;;;25.70;;
61685;SDS011;47592;45.904;8.978;2024-03-23T08:46:09;43.22;;;25.55;;
61685;SDS011;47592;45.904;8.978;2024-03-23T08:48:35;44.28;;;25.33;;
61685;SDS011;47592;45.904;8.978;2024-03-23T08:51:06;42.58;;;25.27;;
61685;SDS011;47592;45.904;8.978;2024-03-23T08:53:33;40.15;;;24.55;;
61685;SDS011;47592;45.904;8.978;2024-03-23T08:55:59;37.58;;;22.98;;
61685;SDS011;47592;45.904;8.978;2024-03-23T08:58:26;36.78;;;21.88;;
61685;SDS011;47592;45.904;8.978;2024-03-23T09:00:56;37.90;;;21.90;;
61685;SDS011;47592;45.904;8.978;2024-03-23T09:03:23;35.22;;;22.80;;
61685;SDS011;47592;45.904;8.978;2024-03-23T09:05:49;36.90;;;21.95;;
61685;SDS011;47592;45.904;8.978;2024-03-23T09:08:15;34.92;;;21.70;;
61685;SDS011;47592;45.904;8.978;2024-03-23T09:10:40;38.30;;;23.08;;
61685;SDS011;47592;45.904;8.978;2024-03-23T09:13:06;41.08;;;24.08;;
61685;SDS011;47592;45.904;8.978;2024-03-23T09:15:34;40.92;;;23.60;;
61685;SDS011;47592;45.904;8.978;2024-03-23T09:18:00;43.95;;;25.73;;
61685;SDS011;47592;45.904;8.978;2024-03-23T09:20:25;43.85;;;25.42;;
61685;SDS011;47592;45.904;8.978;2024-03-23T09:22:53;39.65;;;24.52;;
61685;SDS011;47592;45.904;8.978;2024-03-23T09:25:21;38.25;;;23.08;;
61685;SDS011;47592;45.904;8.978;2024-03-23T09:27:46;39.53;;;23.98;;
61685;SDS011;47592;45.904;8.978;2024-03-23T09:30:14;37.75;;;22.85;;
61685;SDS011;47592;45.904;8.978;2024-03-23T09:32:43;38.78;;;23.45;;
61685;SDS011;47592;45.904;8.978;2024-03-23T09:35:09;35.88;;;22.30;;
61685;SDS011;47592;45.904;8.978;2024-03-23T09:37:35;35.00;;;21.73;;
61685;SDS011;47592;45.904;8.978;2024-03-23T09:40:04;34.47;;;21.90;;
61685;SDS011;47592;45.904;8.978;2024-03-23T09:42:32;36.75;;;22.95;;
61685;SDS011;47592;45.904;8.978;2024-03-23T09:44:58;44.25;;;25.60;;
61685;SDS011;47592;45.904;8.978;2024-03-23T09:47:24;41.08;;;25.02;;
61685;SDS011;47592;45.904;8.978;2024-03-23T09:49:52;37.58;;;24.25;;
61685;SDS011;47592;45.904;8.978;2024-03-23T09:52:18;39.17;;;25.13;;
61685;SDS011;47592;45.904;8.978;2024-03-23T09:54:43;39.95;;;25.48;;
61685;SDS011;47592;45.904;8.978;2024-03-23T09:57:09;41.85;;;25.63;;
61685;SDS011;47592;45.904;8.978;2024-03-23T09:59:35;38.90;;;24.70;;
61685;SDS011;47592;45.904;8.978;2024-03-23T10:02:01;38.97;;;24.25;;
61685;SDS011;47592;45.904;8.978;2024-03-23T10:04:39;38.60;;;24.20;;
61685;SDS011;47592;45.904;8.978;2024-03-23T10:10:10;38.92;;;24.42;;
61685;SDS011;47592;45.904;8.978;2024-03-23T10:12:35;35.30;;;22.63;;
61685;SDS011;47592;45.904;8.978;2024-03-23T10:15:23;33.40;;;21.00;;
61685;SDS011;47592;45.904;8.978;2024-03-23T10:17:50;32.42;;;20.90;;
61685;SDS011;47592;45.904;8.978;2024-03-23T10:20:19;31.87;;;20.60;;
61685;SDS011;47592;45.904;8.978;2024-03-23T10:22:47;30.50;;;19.83;;
61685;SDS011;47592;45.904;8.978;2024-03-23T10:25:25;31.98;;;19.35;;
61685;SDS011;47592;45.904;8.978;2024-03-23T10:27:59;31.02;;;19.67;;
61685;SDS011;47592;45.904;8.978;2024-03-23T10:30:28;28.75;;;18.65;;
61685;SDS011;47592;45.904;8.978;2024-03-23T10:33:11;30.67;;;19.58;;
61685;SDS011;47592;45.904;8.978;2024-03-23T10:35:40;30.15;;;18.27;;
61685;SDS011;47592;45.904;8.978;2024-03-23T10:38:08;28.95;;;18.77;;
61685;SDS011;47592;45.904;8.978;2024-03-23T10:40:36;28.73;;;18.58;;
61685;SDS011;47592;45.904;8.978;2024-03-23T10:43:05;28.85;;;19.02;;
61685;SDS011;47592;45.904;8.978;2024-03-23T10:47:57;28.65;;;18.88;;
61685;SDS011;47592;45.904;8.978;2024-03-23T10:50:22;29.92;;;19.65;;
61685;SDS011;47592;45.904;8.978;2024-03-23T10:52:50;26.10;;;19.15;;
61685;SDS011;47592;45.904;8.978;2024-03-23T10:55:18;28.13;;;19.45;;
61685;SDS011;47592;45.904;8.978;2024-03-23T10:57:51;29.02;;;19.67;;
61685;SDS011;47592;45.904;8.978;2024-03-23T11:00:22;25.85;;;16.88;;
61685;SDS011;47592;45.904;8.978;2024-03-23T11:02:48;28.20;;;18.55;;
61685;SDS011;47592;45.904;8.978;2024-03-23T11:07:52;26.13;;;16.77;;
61685;SDS011;47592;45.904;8.978;2024-03-23T11:10:25;25.15;;;17.15;;
61685;SDS011;47592;45.904;8.978;2024-03-23T11:12:57;21.30;;;15.60;;
61685;SDS011;47592;45.904;8.978;2024-03-23T11:15:23;22.08;;;15.02;;
61685;SDS011;47592;45.904;8.978;2024-03-23T11:18:03;23.50;;;14.90;;
61685;SDS011;47592;45.904;8.978;2024-03-23T11:20:37;21.73;;;14.43;;
61685;SDS011;47592;45.904;8.978;2024-03-23T11:23:02;22.23;;;15.00;;
61685;SDS011;47592;45.904;8.978;2024-03-23T11:25:29;21.90;;;14.70;;
61685;SDS011;47592;45.904;8.978;2024-03-23T11:28:08;21.60;;;14.60;;
61685;SDS011;47592;45.904;8.978;2024-03-23T11:30:38;20.38;;;14.30;;
61685;SDS011;47592;45.904;8.978;2024-03-23T11:33:04;23.92;;;15.05;;
61685;SDS011;47592;45.904;8.978;2024-03-23T11:35:33;25.50;;;14.68;;
61685;SDS011;47592;45.904;8.978;2024-03-23T11:40:30;24.20;;;14.55;;
61685;SDS011;47592;45.904;8.978;2024-03-23T11:42:59;25.13;;;16.13;;
61685;SDS011;47592;45.904;8.978;2024-03-23T11:50:36;25.13;;;16.23;;
61685;SDS011;47592;45.904;8.978;2024-03-23T11:53:15;25.52;;;16.42;;
61685;SDS011;47592;45.904;8.978;2024-03-23T11:55:51;27.83;;;17.23;;
61685;SDS011;47592;45.904;8.978;2024-03-23T11:58:24;29.48;;;18.42;;
61685;SDS011;47592;45.904;8.978;2024-03-23T12:03:17;27.70;;;18.05;;
61685;SDS011;47592;45.904;8.978;2024-03-23T12:05:47;25.50;;;17.75;;
61685;SDS011;47592;45.904;8.978;2024-03-23T12:08:21;27.38;;;19.15;;
61685;SDS011;47592;45.904;8.978;2024-03-23T12:10:47;29.88;;;19.45;;
61685;SDS011;47592;45.904;8.978;2024-03-23T12:13:17;26.05;;;19.40;;
61685;SDS011;47592;45.904;8.978;2024-03-23T12:15:51;27.20;;;18.58;;
61685;SDS011;47592;45.904;8.978;2024-03-23T12:18:17;28.73;;;18.33;;
61685;SDS011;47592;45.904;8.978;2024-03-23T12:20:49;25.38;;;18.00;;
61685;SDS011;47592;45.904;8.978;2024-03-23T12:23:19;27.27;;;18.27;;
61685;SDS011;47592;45.904;8.978;2024-03-23T12:25:48;28.35;;;17.95;;
61685;SDS011;47592;45.904;8.978;2024-03-23T12:28:13;27.75;;;18.42;;
61685;SDS011;47592;45.904;8.978;2024-03-23T12:30:39;26.75;;;18.33;;
61685;SDS011;47592;45.904;8.978;2024-03-23T12:33:10;25.80;;;17.88;;
61685;SDS011;47592;45.904;8.978;2024-03-23T12:35:38;27.55;;;17.83;;
61685;SDS011;47592;45.904;8.978;2024-03-23T12:38:05;27.20;;;18.80;;
61685;SDS011;47592;45.904;8.978;2024-03-23T12:40:31;27.45;;;18.20;;
61685;SDS011;47592;45.904;8.978;2024-03-23T12:43:01;25.77;;;17.08;;
61685;SDS011;47592;45.904;8.978;2024-03-23T12:45:26;25.88;;;16.40;;
61685;SDS011;47592;45.904;8.978;2024-03-23T12:47:52;27.52;;;18.25;;
61685;SDS011;47592;45.904;8.978;2024-03-23T12:50:18;24.52;;;16.95;;
61685;SDS011;47592;45.904;8.978;2024-03-23T12:52:44;28.20;;;18.15;;
61685;SDS011;47592;45.904;8.978;2024-03-23T12:55:14;27.63;;;19.30;;
61685;SDS011;47592;45.904;8.978;2024-03-23T12:57:40;25.65;;;18.20;;
61685;SDS011;47592;45.904;8.978;2024-03-23T13:00:08;28.98;;;19.10;;
61685;SDS011;47592;45.904;8.978;2024-03-23T13:02:40;26.35;;;17.33;;
61685;SDS011;47592;45.904;8.978;2024-03-23T13:05:06;27.17;;;17.42;;
61685;SDS011;47592;45.904;8.978;2024-03-23T13:07:33;25.75;;;17.92;;
61685;SDS011;47592;45.904;8.978;2024-03-23T13:10:00;23.65;;;16.92;;
61685;SDS011;47592;45.904;8.978;2024-03-23T13:12:30;25.45;;;17.25;;
61685;SDS011;47592;45.904;8.978;2024-03-23T13:14:56;23.88;;;16.90;;
61685;SDS011;47592;45.904;8.978;2024-03-23T13:17:30;26.50;;;18.20;;
61685;SDS011;47592;45.904;8.978;2024-03-23T13:19:57;25.35;;;17.30;;
61685;SDS011;47592;45.904;8.978;2024-03-23T13:22:23;25.65;;;18.20;;
61685;SDS011;47592;45.904;8.978;2024-03-23T13:24:48;26.02;;;18.52;;
61685;SDS011;47592;45.904;8.978;2024-03-23T13:27:14;24.65;;;17.45;;
61685;SDS011;47592;45.904;8.978;2024-03-23T13:29:39;26.80;;;18.58;;
61685;SDS011;47592;45.904;8.978;2024-03-23T13:32:04;25.95;;;17.85;;
61685;SDS011;47592;45.904;8.978;2024-03-23T13:34:31;26.38;;;18.85;;
61685;SDS011;47592;45.904;8.978;2024-03-23T13:37:00;24.35;;;17.20;;
61685;SDS011;47592;45.904;8.978;2024-03-23T13:39:25;24.70;;;17.67;;
61685;SDS011;47592;45.904;8.978;2024-03-23T13:41:53;23.42;;;16.60;;
61685;SDS011;47592;45.904;8.978;2024-03-23T13:44:22;22.40;;;15.30;;
61685;SDS011;47592;45.904;8.978;2024-03-23T13:46:47;22.42;;;15.95;;
61685;SDS011;47592;45.904;8.978;2024-03-23T13:49:20;21.08;;;15.10;;
61685;SDS011;47592;45.904;8.978;2024-03-23T13:51:49;19.67;;;14.57;;
61685;SDS011;47592;45.904;8.978;2024-03-23T13:54:15;19.63;;;13.20;;
61685;SDS011;47592;45.904;8.978;2024-03-23T13:56:45;23.80;;;13.15;;
61685;SDS011;47592;45.904;8.978;2024-03-23T13:59:10;19.13;;;11.75;;
61685;SDS011;47592;45.904;8.978;2024-03-23T14:01:37;18.80;;;12.75;;
61685;SDS011;47592;45.904;8.978;2024-03-23T14:04:02;21.55;;;13.25;;
61685;SDS011;47592;45.904;8.978;2024-03-23T14:06:27;19.60;;;12.52;;
61685;SDS011;47592;45.904;8.978;2024-03-23T14:08:53;20.00;;;13.20;;
61685;SDS011;47592;45.904;8.978;2024-03-23T14:11:20;18.15;;;12.25;;
61685;SDS011;47592;45.904;8.978;2024-03-23T14:13:46;18.73;;;12.02;;
61685;SDS011;47592;45.904;8.978;2024-03-23T14:16:13;19.13;;;12.65;;
61685;SDS011;47592;45.904;8.978;2024-03-23T14:18:39;19.98;;;12.60;;
61685;SDS011;47592;45.904;8.978;2024-03-23T14:21:06;18.50;;;12.10;;
61685;SDS011;47592;45.904;8.978;2024-03-23T14:23:35;21.35;;;13.00;;
61685;SDS011;47592;45.904;8.978;2024-03-23T14:26:01;18.75;;;11.73;;
61685;SDS011;47592;45.904;8.978;2024-03-23T14:28:26;15.57;;;10.68;;
61685;SDS011;47592;45.904;8.978;2024-03-23T14:30:55;15.57;;;10.65;;
61685;SDS011;47592;45.904;8.978;2024-03-23T14:33:20;14.05;;;9.43;;
61685;SDS011;47592;45.904;8.978;2024-03-23T14:35:56;14.55;;;9.13;;
61685;SDS011;47592;45.904;8.978;2024-03-23T14:38:24;14.35;;;8.27;;
61685;SDS011;47592;45.904;8.978;2024-03-23T14:40:49;11.95;;;7.70;;
61685;SDS011;47592;45.904;8.978;2024-03-23T14:43:17;10.82;;;6.75;;
61685;SDS011;47592;45.904;8.978;2024-03-23T14:46:28;11.32;;;7.57;;
61685;SDS011;47592;45.904;8.978;2024-03-23T14:48:36;17.30;;;11.05;;
61685;SDS011;47592;45.904;8.978;2024-03-23T14:51:02;16.25;;;9.50;;
61685;SDS011;47592;45.904;8.978;2024-03-23T14:53:32;13.30;;;8.80;;
61685;SDS011;47592;45.904;8.978;2024-03-23T14:55:58;15.57;;;9.50;;
61685;SDS011;47592;45.904;8.978;2024-03-23T14:58:25;13.48;;;8.20;;
61685;SDS011;47592;45.904;8.978;2024-03-23T15:00:53;12.10;;;8.25;;
61685;SDS011;47592;45.904;8.978;2024-03-23T15:03:18;12.77;;;7.82;;
61685;SDS011;47592;45.904;8.978;2024-03-23T15:05:57;10.13;;;6.90;;
61685;SDS011;47592;45.904;8.978;2024-03-23T15:08:23;9.52;;;4.75;;
61685;SDS011;47592;45.904;8.978;2024-03-23T15:10:52;7.38;;;3.20;;
61685;SDS011;47592;45.904;8.978;2024-03-23T15:13:18;9.02;;;5.45;;
61685;SDS011;47592;45.904;8.978;2024-03-23T15:15:43;8.75;;;5.38;;
61685;SDS011;47592;45.904;8.978;2024-03-23T15:18:12;9.38;;;5.63;;
61685;SDS011;47592;45.904;8.978;2024-03-23T15:20:42;9.27;;;6.00;;
61685;SDS011;47592;45.904;8.978;2024-03-23T15:23:36;5.20;;;2.42;;
61685;SDS011;47592;45.904;8.978;2024-03-23T15:26:04;5.25;;;2.50;;
61685;SDS011;47592;45.904;8.978;2024-03-23T15:28:33;6.22;;;2.13;;
61685;SDS011;47592;45.904;8.978;2024-03-23T15:31:17;5.13;;;2.28;;
61685;SDS011;47592;45.904;8.978;2024-03-23T15:33:42;4.93;;;2.00;;
61685;SDS011;47592;45.904;8.978;2024-03-23T15:36:07;5.63;;;1.92;;
61685;SDS011;47592;45.904;8.978;2024-03-23T15:38:33;5.15;;;2.20;;
61685;SDS011;47592;45.904;8.978;2024-03-23T15:41:03;5.88;;;2.05;;
61685;SDS011;47592;45.904;8.978;2024-03-23T15:43:28;6.50;;;2.03;;